sensor_id;sensor_type;location;lat;lon;timestamp;pressure;altitude;pressure_sealevel;temperature;humidity
80648;BME280;70012;0.000;0.000;2023-05-16T00:01:55;100670.91;;;11.29;73.78
80648;BME280;70012;0.000;0.000;2023-05-16T00:04:21;100700.63;;;11.37;74.69
80648;BME280;70012;0.000;0.000;2023-05-16T00:06:49;100680.38;;;11.21;75.95
80648;BME280;70012;0.000;0.000;2023-05-16T00:09:15;100706.63;;;11.34;76.27
80648;BME280;70012;0.000;0.000;2023-05-16T00:11:43;100658.94;;;11.01;77.54
80648;BME280;70012;0.000;0.000;2023-05-16T00:14:10;100668.44;;;11.10;77.57
80648;BME280;70012;0.000;0.000;2023-05-16T00:16:37;100688.53;;;11.16;77.72
80648;BME280;70012;0.000;0.000;2023-05-16T00:19:03;100694.81;;;11.16;78.53
80648;BME280;70012;0.000;0.000;2023-05-16T00:21:31;100686.69;;;11.04;78.64
80648;BME280;70012;0.000;0.000;2023-05-16T00:23:58;100670.34;;;10.93;78.61
80648;BME280;70012;0.000;0.000;2023-05-16T00:26:25;100664.59;;;10.77;79.33
80648;BME280;70012;0.000;0.000;2023-05-16T00:28:51;100688.66;;;10.92;78.99
80648;BME280;70012;0.000;0.000;2023-05-16T00:31:18;100676.28;;;10.89;79.46
80648;BME280;70012;0.000;0.000;2023-05-16T00:33:45;100685.09;;;10.92;79.98
80648;BME280;70012;0.000;0.000;2023-05-16T00:36:12;100667.25;;;10.72;80.36
80648;BME280;70012;0.000;0.000;2023-05-16T00:38:42;100657.97;;;10.73;80.58
80648;BME280;70012;0.000;0.000;2023-05-16T00:41:08;100674.94;;;10.75;80.54
80648;BME280;70012;0.000;0.000;2023-05-16T00:43:36;100666.41;;;10.71;80.23
80648;BME280;70012;0.000;0.000;2023-05-16T00:46:06;100652.28;;;10.63;80.74
80648;BME280;70012;0.000;0.000;2023-05-16T00:48:36;100658.59;;;10.63;80.41
80648;BME280;70012;0.000;0.000;2023-05-16T00:51:06;100661.72;;;10.55;80.94
80648;BME280;70012;0.000;0.000;2023-05-16T00:53:37;100655.41;;;10.54;80.68
80648;BME280;70012;0.000;0.000;2023-05-16T00:56:05;100649.59;;;10.51;80.93
80648;BME280;70012;0.000;0.000;2023-05-16T00:58:44;100654.25;;;10.50;81.41
80648;BME280;70012;0.000;0.000;2023-05-16T01:01:12;100675.16;;;10.56;80.96
80648;BME280;70012;0.000;0.000;2023-05-16T01:03:46;100650.09;;;10.48;81.52
80648;BME280;70012;0.000;0.000;2023-05-16T01:06:22;100660.53;;;10.51;81.51
80648;BME280;70012;0.000;0.000;2023-05-16T01:09:00;100667.69;;;10.52;81.71
80648;BME280;70012;0.000;0.000;2023-05-16T01:11:55;100665.69;;;10.47;81.13
80648;BME280;70012;0.000;0.000;2023-05-16T01:14:40;100651.81;;;10.37;81.88
80648;BME280;70012;0.000;0.000;2023-05-16T01:17:37;100653.72;;;10.36;82.34
80648;BME280;70012;0.000;0.000;2023-05-16T01:23:11;100702.75;;;10.67;83.19
80648;BME280;70012;0.000;0.000;2023-05-16T01:26:06;100703.81;;;10.66;83.24
80648;BME280;70012;0.000;0.000;2023-05-16T01:28:34;100663.34;;;10.39;82.29
80648;BME280;70012;0.000;0.000;2023-05-16T01:31:02;100680.22;;;10.48;82.35
80648;BME280;70012;0.000;0.000;2023-05-16T01:33:32;100671.78;;;10.37;82.32
80648;BME280;70012;0.000;0.000;2023-05-16T01:36:05;100669.78;;;10.33;82.35
80648;BME280;70012;0.000;0.000;2023-05-16T01:42:06;100673.22;;;10.28;82.53
80648;BME280;70012;0.000;0.000;2023-05-16T01:44:49;100694.53;;;10.38;82.10
80648;BME280;70012;0.000;0.000;2023-05-16T01:47:22;100704.16;;;10.40;82.04
80648;BME280;70012;0.000;0.000;2023-05-16T01:50:02;100718.19;;;10.32;82.14
80648;BME280;70012;0.000;0.000;2023-05-16T01:53:02;100725.47;;;10.27;81.90
80648;BME280;70012;0.000;0.000;2023-05-16T01:55:41;100713.84;;;10.19;82.61
80648;BME280;70012;0.000;0.000;2023-05-16T01:58:17;100722.03;;;10.19;83.04
80648;BME280;70012;0.000;0.000;2023-05-16T02:00:45;100732.84;;;10.14;83.03
80648;BME280;70012;0.000;0.000;2023-05-16T02:03:11;100715.53;;;9.97;82.99
80648;BME280;70012;0.000;0.000;2023-05-16T02:05:38;100712.69;;;9.91;83.44
80648;BME280;70012;0.000;0.000;2023-05-16T02:08:06;100719.34;;;9.96;83.21
80648;BME280;70012;0.000;0.000;2023-05-16T02:10:33;100725.78;;;9.89;83.16
80648;BME280;70012;0.000;0.000;2023-05-16T02:13:00;100726.38;;;9.91;83.12
80648;BME280;70012;0.000;0.000;2023-05-16T02:15:26;100752.50;;;9.87;82.32
80648;BME280;70012;0.000;0.000;2023-05-16T02:17:54;100730.66;;;9.75;82.69
80648;BME280;70012;0.000;0.000;2023-05-16T02:20:21;100744.34;;;9.64;83.08
80648;BME280;70012;0.000;0.000;2023-05-16T02:22:47;100746.47;;;9.61;83.76
80648;BME280;70012;0.000;0.000;2023-05-16T02:25:15;100731.97;;;9.49;83.10
80648;BME280;70012;0.000;0.000;2023-05-16T02:27:42;100726.13;;;9.45;82.83
80648;BME280;70012;0.000;0.000;2023-05-16T02:30:10;100771.66;;;9.64;83.29
80648;BME280;70012;0.000;0.000;2023-05-16T02:32:40;100731.22;;;9.30;83.42
80648;BME280;70012;0.000;0.000;2023-05-16T02:35:10;100753.72;;;9.44;83.73
80648;BME280;70012;0.000;0.000;2023-05-16T02:37:41;100742.50;;;9.34;83.57
80648;BME280;70012;0.000;0.000;2023-05-16T02:40:09;100759.19;;;9.44;83.41
80648;BME280;70012;0.000;0.000;2023-05-16T02:42:35;100759.63;;;9.41;83.41
80648;BME280;70012;0.000;0.000;2023-05-16T02:45:02;100738.47;;;9.24;83.68
80648;BME280;70012;0.000;0.000;2023-05-16T02:47:29;100752.50;;;9.28;83.73
80648;BME280;70012;0.000;0.000;2023-05-16T02:49:56;100787.56;;;9.43;84.34
80648;BME280;70012;0.000;0.000;2023-05-16T02:52:22;100776.41;;;9.33;84.61
80648;BME280;70012;0.000;0.000;2023-05-16T02:54:52;100771.88;;;9.26;84.11
80648;BME280;70012;0.000;0.000;2023-05-16T02:57:41;100775.19;;;9.28;83.62
80648;BME280;70012;0.000;0.000;2023-05-16T03:00:08;100754.59;;;9.14;83.97
80648;BME280;70012;0.000;0.000;2023-05-16T03:02:37;100757.31;;;9.14;84.34
80648;BME280;70012;0.000;0.000;2023-05-16T03:05:04;100772.31;;;9.23;83.94
80648;BME280;70012;0.000;0.000;2023-05-16T03:07:31;100776.94;;;9.11;84.15
80648;BME280;70012;0.000;0.000;2023-05-16T03:09:58;100787.84;;;9.11;83.54
80648;BME280;70012;0.000;0.000;2023-05-16T03:12:25;100800.56;;;9.17;83.75
80648;BME280;70012;0.000;0.000;2023-05-16T03:14:51;100793.75;;;9.08;84.26
80648;BME280;70012;0.000;0.000;2023-05-16T03:17:27;100803.63;;;9.09;84.19
80648;BME280;70012;0.000;0.000;2023-05-16T03:19:54;100796.97;;;9.05;84.02
80648;BME280;70012;0.000;0.000;2023-05-16T03:22:21;100792.44;;;8.99;84.03
80648;BME280;70012;0.000;0.000;2023-05-16T03:24:47;100784.56;;;8.90;84.18
80648;BME280;70012;0.000;0.000;2023-05-16T03:27:15;100813.94;;;9.07;84.01
80648;BME280;70012;0.000;0.000;2023-05-16T03:29:42;100810.03;;;9.03;84.20
80648;BME280;70012;0.000;0.000;2023-05-16T03:32:09;100804.66;;;8.96;83.90
80648;BME280;70012;0.000;0.000;2023-05-16T03:34:39;100788.84;;;8.86;83.88
80648;BME280;70012;0.000;0.000;2023-05-16T03:37:06;100795.13;;;8.87;83.83
80648;BME280;70012;0.000;0.000;2023-05-16T03:39:33;100818.53;;;8.94;83.98
80648;BME280;70012;0.000;0.000;2023-05-16T03:41:59;100825.53;;;8.90;83.60
80648;BME280;70012;0.000;0.000;2023-05-16T03:44:29;100833.25;;;8.93;83.96
80648;BME280;70012;0.000;0.000;2023-05-16T03:46:56;100813.63;;;8.85;83.64
80648;BME280;70012;0.000;0.000;2023-05-16T03:49:25;100846.69;;;8.95;84.64
80648;BME280;70012;0.000;0.000;2023-05-16T03:51:53;100848.81;;;8.93;84.11
80648;BME280;70012;0.000;0.000;2023-05-16T03:54:21;100852.38;;;8.93;84.48
80648;BME280;70012;0.000;0.000;2023-05-16T03:56:47;100855.72;;;8.95;84.07
80648;BME280;70012;0.000;0.000;2023-05-16T03:59:17;100858.44;;;8.95;83.81
80648;BME280;70012;0.000;0.000;2023-05-16T04:01:43;100851.84;;;8.85;83.78
80648;BME280;70012;0.000;0.000;2023-05-16T04:04:10;100869.91;;;8.86;83.75
80648;BME280;70012;0.000;0.000;2023-05-16T04:06:37;100860.13;;;8.78;83.97
80648;BME280;70012;0.000;0.000;2023-05-16T04:09:03;100871.63;;;8.80;83.42
80648;BME280;70012;0.000;0.000;2023-05-16T04:11:31;100858.91;;;8.74;83.37
80648;BME280;70012;0.000;0.000;2023-05-16T04:14:13;100866.91;;;8.75;83.09
80648;BME280;70012;0.000;0.000;2023-05-16T04:16:48;100844.22;;;8.56;83.29
80648;BME280;70012;0.000;0.000;2023-05-16T04:19:20;100880.16;;;8.72;83.06
80648;BME280;70012;0.000;0.000;2023-05-16T04:21:47;100882.72;;;8.67;83.78
80648;BME280;70012;0.000;0.000;2023-05-16T04:24:14;100876.91;;;8.63;83.51
80648;BME280;70012;0.000;0.000;2023-05-16T04:26:41;100873.19;;;8.57;83.42
80648;BME280;70012;0.000;0.000;2023-05-16T04:29:08;100878.41;;;8.59;83.47
80648;BME280;70012;0.000;0.000;2023-05-16T04:31:35;100886.22;;;8.55;83.22
80648;BME280;70012;0.000;0.000;2023-05-16T04:34:03;100889.09;;;8.60;83.85
80648;BME280;70012;0.000;0.000;2023-05-16T04:36:30;100888.28;;;8.60;83.56
80648;BME280;70012;0.000;0.000;2023-05-16T04:38:57;100895.63;;;8.59;83.75
80648;BME280;70012;0.000;0.000;2023-05-16T04:41:23;100906.69;;;8.64;83.54
80648;BME280;70012;0.000;0.000;2023-05-16T04:43:50;100898.19;;;8.54;83.24
80648;BME280;70012;0.000;0.000;2023-05-16T04:46:17;100902.59;;;8.55;83.31
80648;BME280;70012;0.000;0.000;2023-05-16T04:48:44;100913.50;;;8.55;83.37
80648;BME280;70012;0.000;0.000;2023-05-16T04:51:10;100908.94;;;8.49;83.10
80648;BME280;70012;0.000;0.000;2023-05-16T04:53:37;100922.38;;;8.51;83.35
80648;BME280;70012;0.000;0.000;2023-05-16T04:56:04;100922.59;;;8.49;83.17
80648;BME280;70012;0.000;0.000;2023-05-16T04:58:31;100929.13;;;8.48;83.43
80648;BME280;70012;0.000;0.000;2023-05-16T05:00:58;100941.69;;;8.49;83.90
80648;BME280;70012;0.000;0.000;2023-05-16T05:03:27;100932.06;;;8.46;83.39
80648;BME280;70012;0.000;0.000;2023-05-16T05:05:53;100939.19;;;8.47;83.06
80648;BME280;70012;0.000;0.000;2023-05-16T05:08:21;100940.47;;;8.45;83.57
80648;BME280;70012;0.000;0.000;2023-05-16T05:10:49;100938.41;;;8.40;83.67
80648;BME280;70012;0.000;0.000;2023-05-16T05:13:15;100955.16;;;8.44;83.07
80648;BME280;70012;0.000;0.000;2023-05-16T05:15:42;100957.72;;;8.39;81.86
80648;BME280;70012;0.000;0.000;2023-05-16T05:18:08;100963.47;;;8.30;81.39
80648;BME280;70012;0.000;0.000;2023-05-16T05:20:35;100973.31;;;8.31;80.50
80648;BME280;70012;0.000;0.000;2023-05-16T05:23:02;100966.63;;;8.27;79.57
80648;BME280;70012;0.000;0.000;2023-05-16T05:25:28;100974.66;;;8.22;79.18
80648;BME280;70012;0.000;0.000;2023-05-16T05:27:55;100972.81;;;8.16;79.92
80648;BME280;70012;0.000;0.000;2023-05-16T05:30:22;100985.81;;;8.14;79.31
80648;BME280;70012;0.000;0.000;2023-05-16T05:32:48;100985.63;;;8.15;79.12
80648;BME280;70012;0.000;0.000;2023-05-16T05:35:15;100986.88;;;8.13;78.08
80648;BME280;70012;0.000;0.000;2023-05-16T05:37:42;100985.22;;;8.12;77.89
80648;BME280;70012;0.000;0.000;2023-05-16T05:40:09;100984.50;;;8.23;79.91
80648;BME280;70012;0.000;0.000;2023-05-16T05:42:35;101002.22;;;8.39;78.21
80648;BME280;70012;0.000;0.000;2023-05-16T05:45:02;100995.94;;;8.39;77.88
80648;BME280;70012;0.000;0.000;2023-05-16T05:47:29;100992.94;;;8.47;78.16
80648;BME280;70012;0.000;0.000;2023-05-16T05:49:57;100998.25;;;8.60;77.95
80648;BME280;70012;0.000;0.000;2023-05-16T05:52:26;101012.34;;;8.83;78.50
80648;BME280;70012;0.000;0.000;2023-05-16T05:54:53;101003.78;;;8.97;77.51
80648;BME280;70012;0.000;0.000;2023-05-16T05:57:20;101007.44;;;9.10;75.59
80648;BME280;70012;0.000;0.000;2023-05-16T05:59:47;101003.09;;;9.21;75.05
80648;BME280;70012;0.000;0.000;2023-05-16T06:02:14;101006.66;;;9.21;73.92
80648;BME280;70012;0.000;0.000;2023-05-16T06:04:41;101011.75;;;9.18;73.86
80648;BME280;70012;0.000;0.000;2023-05-16T06:07:09;101015.84;;;9.27;74.20
80648;BME280;70012;0.000;0.000;2023-05-16T06:09:36;101021.09;;;9.28;72.37
80648;BME280;70012;0.000;0.000;2023-05-16T06:12:03;101015.72;;;9.22;73.10
80648;BME280;70012;0.000;0.000;2023-05-16T06:14:30;101040.44;;;9.27;73.10
80648;BME280;70012;0.000;0.000;2023-05-16T06:16:57;101023.81;;;9.28;72.37
80648;BME280;70012;0.000;0.000;2023-05-16T06:19:24;101031.41;;;9.45;71.86
80648;BME280;70012;0.000;0.000;2023-05-16T06:21:51;101033.09;;;9.46;72.98
80648;BME280;70012;0.000;0.000;2023-05-16T06:24:19;101034.19;;;9.57;74.42
80648;BME280;70012;0.000;0.000;2023-05-16T06:26:45;101040.19;;;9.66;75.03
80648;BME280;70012;0.000;0.000;2023-05-16T06:29:15;101028.47;;;9.77;75.53
80648;BME280;70012;0.000;0.000;2023-05-16T06:31:43;101050.44;;;10.01;74.73
80648;BME280;70012;0.000;0.000;2023-05-16T06:34:10;101047.50;;;10.14;73.50
80648;BME280;70012;0.000;0.000;2023-05-16T06:36:36;101043.56;;;10.10;72.09
80648;BME280;70012;0.000;0.000;2023-05-16T06:39:03;101046.19;;;10.05;72.42
80648;BME280;70012;0.000;0.000;2023-05-16T06:41:30;101045.13;;;10.06;72.19
80648;BME280;70012;0.000;0.000;2023-05-16T06:43:56;101045.03;;;10.24;74.03
80648;BME280;70012;0.000;0.000;2023-05-16T06:46:23;101038.53;;;10.37;73.06
80648;BME280;70012;0.000;0.000;2023-05-16T06:48:50;101055.72;;;10.56;72.35
80648;BME280;70012;0.000;0.000;2023-05-16T06:51:16;101049.31;;;10.75;71.95
80648;BME280;70012;0.000;0.000;2023-05-16T06:53:43;101049.19;;;10.81;71.11
80648;BME280;70012;0.000;0.000;2023-05-16T06:56:10;101063.16;;;11.03;69.91
80648;BME280;70012;0.000;0.000;2023-05-16T06:58:37;101060.75;;;11.07;68.96
80648;BME280;70012;0.000;0.000;2023-05-16T07:01:03;101050.72;;;11.25;69.28
80648;BME280;70012;0.000;0.000;2023-05-16T07:03:30;101055.72;;;11.28;68.87
80648;BME280;70012;0.000;0.000;2023-05-16T07:05:57;101055.13;;;11.26;68.32
80648;BME280;70012;0.000;0.000;2023-05-16T07:08:24;101061.44;;;11.38;67.84
80648;BME280;70012;0.000;0.000;2023-05-16T07:10:51;101064.28;;;11.43;67.34
80648;BME280;70012;0.000;0.000;2023-05-16T07:13:18;101061.06;;;11.46;63.95
80648;BME280;70012;0.000;0.000;2023-05-16T07:15:44;101068.22;;;11.35;63.11
80648;BME280;70012;0.000;0.000;2023-05-16T07:18:11;101057.97;;;11.31;60.77
80648;BME280;70012;0.000;0.000;2023-05-16T07:20:38;101059.66;;;11.32;61.55
80648;BME280;70012;0.000;0.000;2023-05-16T07:23:05;101071.31;;;11.39;61.50
80648;BME280;70012;0.000;0.000;2023-05-16T07:25:33;101071.31;;;11.39;60.09
80648;BME280;70012;0.000;0.000;2023-05-16T07:28:01;101066.31;;;11.36;60.46
80648;BME280;70012;0.000;0.000;2023-05-16T07:30:29;101075.34;;;11.48;61.04
80648;BME280;70012;0.000;0.000;2023-05-16T07:32:57;101078.06;;;11.60;62.06
80648;BME280;70012;0.000;0.000;2023-05-16T07:35:24;101068.13;;;11.71;60.80
80648;BME280;70012;0.000;0.000;2023-05-16T07:37:51;101080.59;;;11.91;58.77
80648;BME280;70012;0.000;0.000;2023-05-16T07:40:18;101083.56;;;12.01;59.59
80648;BME280;70012;0.000;0.000;2023-05-16T07:42:47;101085.47;;;11.89;61.16
80648;BME280;70012;0.000;0.000;2023-05-16T07:45:13;101080.25;;;11.99;61.33
80648;BME280;70012;0.000;0.000;2023-05-16T07:47:40;101071.53;;;12.19;62.85
80648;BME280;70012;0.000;0.000;2023-05-16T07:50:07;101074.97;;;12.26;60.96
80648;BME280;70012;0.000;0.000;2023-05-16T07:52:34;101081.47;;;12.37;59.75
80648;BME280;70012;0.000;0.000;2023-05-16T07:55:02;101071.66;;;12.41;60.14
80648;BME280;70012;0.000;0.000;2023-05-16T07:57:29;101070.56;;;12.25;61.15
80648;BME280;70012;0.000;0.000;2023-05-16T07:59:56;101085.72;;;11.99;58.83
80648;BME280;70012;0.000;0.000;2023-05-16T08:02:25;101091.56;;;12.03;61.38
80648;BME280;70012;0.000;0.000;2023-05-16T08:04:56;101095.97;;;11.92;61.90
80648;BME280;70012;0.000;0.000;2023-05-16T08:07:23;101091.66;;;11.96;61.73
80648;BME280;70012;0.000;0.000;2023-05-16T08:09:50;101088.72;;;11.85;61.93
80648;BME280;70012;0.000;0.000;2023-05-16T08:12:17;101097.69;;;11.81;62.76
80648;BME280;70012;0.000;0.000;2023-05-16T08:14:44;101096.72;;;11.75;61.62
80648;BME280;70012;0.000;0.000;2023-05-16T08:17:11;101092.13;;;11.64;60.87
80648;BME280;70012;0.000;0.000;2023-05-16T08:19:38;101094.41;;;11.55;61.20
80648;BME280;70012;0.000;0.000;2023-05-16T08:22:06;101094.66;;;11.53;62.05
80648;BME280;70012;0.000;0.000;2023-05-16T08:24:35;101089.66;;;11.50;61.76
80648;BME280;70012;0.000;0.000;2023-05-16T08:27:02;101104.31;;;11.56;61.75
80648;BME280;70012;0.000;0.000;2023-05-16T08:29:30;101095.22;;;11.56;61.93
80648;BME280;70012;0.000;0.000;2023-05-16T08:31:58;101095.59;;;11.47;62.71
80648;BME280;70012;0.000;0.000;2023-05-16T08:34:25;101099.56;;;11.40;61.38
80648;BME280;70012;0.000;0.000;2023-05-16T08:36:51;101111.22;;;11.47;61.82
80648;BME280;70012;0.000;0.000;2023-05-16T08:39:20;101109.09;;;11.37;60.89
80648;BME280;70012;0.000;0.000;2023-05-16T08:41:48;101097.06;;;11.38;59.52
80648;BME280;70012;0.000;0.000;2023-05-16T08:44:15;101116.09;;;11.57;61.54
80648;BME280;70012;0.000;0.000;2023-05-16T08:46:50;101095.84;;;11.58;58.11
80648;BME280;70012;0.000;0.000;2023-05-16T08:49:18;101096.25;;;11.78;57.96
80648;BME280;70012;0.000;0.000;2023-05-16T08:51:47;101096.00;;;11.80;58.70
80648;BME280;70012;0.000;0.000;2023-05-16T08:54:14;101098.63;;;11.87;58.23
80648;BME280;70012;0.000;0.000;2023-05-16T08:56:43;101083.69;;;11.94;59.54
80648;BME280;70012;0.000;0.000;2023-05-16T08:59:10;101093.38;;;11.97;59.16
80648;BME280;70012;0.000;0.000;2023-05-16T09:01:38;101085.34;;;11.95;59.62
80648;BME280;70012;0.000;0.000;2023-05-16T09:04:07;101084.53;;;12.24;58.29
80648;BME280;70012;0.000;0.000;2023-05-16T09:06:36;101097.16;;;12.54;58.87
80648;BME280;70012;0.000;0.000;2023-05-16T09:09:04;101088.41;;;12.57;54.87
80648;BME280;70012;0.000;0.000;2023-05-16T09:11:33;101074.94;;;12.72;54.01
80648;BME280;70012;0.000;0.000;2023-05-16T09:14:02;101079.09;;;12.92;52.80
80648;BME280;70012;0.000;0.000;2023-05-16T09:16:34;101080.97;;;13.08;53.56
80648;BME280;70012;0.000;0.000;2023-05-16T09:19:01;101093.13;;;13.12;52.59
80648;BME280;70012;0.000;0.000;2023-05-16T09:21:30;101052.19;;;12.94;53.05
80648;BME280;70012;0.000;0.000;2023-05-16T09:24:05;101071.50;;;12.99;50.18
80648;BME280;70012;0.000;0.000;2023-05-16T09:26:37;101090.59;;;13.28;52.01
80648;BME280;70012;0.000;0.000;2023-05-16T09:29:11;101062.78;;;13.24;49.83
80648;BME280;70012;0.000;0.000;2023-05-16T09:31:38;101077.25;;;13.54;50.60
80648;BME280;70012;0.000;0.000;2023-05-16T09:34:07;101075.03;;;13.56;51.43
80648;BME280;70012;0.000;0.000;2023-05-16T09:36:36;101058.47;;;13.11;48.68
80648;BME280;70012;0.000;0.000;2023-05-16T09:39:05;101086.56;;;13.13;49.79
80648;BME280;70012;0.000;0.000;2023-05-16T09:41:33;101070.13;;;13.19;51.05
80648;BME280;70012;0.000;0.000;2023-05-16T09:44:04;101057.13;;;13.14;50.99
80648;BME280;70012;0.000;0.000;2023-05-16T09:46:36;101074.56;;;13.20;49.00
80648;BME280;70012;0.000;0.000;2023-05-16T09:49:03;101070.66;;;12.98;51.89
80648;BME280;70012;0.000;0.000;2023-05-16T09:51:30;101085.91;;;12.89;51.57
80648;BME280;70012;0.000;0.000;2023-05-16T09:53:58;101074.66;;;12.91;51.43
80648;BME280;70012;0.000;0.000;2023-05-16T09:56:26;101063.19;;;12.94;51.04
80648;BME280;70012;0.000;0.000;2023-05-16T09:58:55;101079.47;;;13.18;49.98
80648;BME280;70012;0.000;0.000;2023-05-16T10:01:22;101055.03;;;13.21;50.08
80648;BME280;70012;0.000;0.000;2023-05-16T10:03:51;101072.13;;;13.40;48.69
80648;BME280;70012;0.000;0.000;2023-05-16T10:06:18;101065.13;;;13.55;50.19
80648;BME280;70012;0.000;0.000;2023-05-16T10:08:46;101078.53;;;13.96;49.90
80648;BME280;70012;0.000;0.000;2023-05-16T10:11:15;101091.91;;;14.09;49.98
80648;BME280;70012;0.000;0.000;2023-05-16T10:13:44;101085.09;;;13.89;48.25
80648;BME280;70012;0.000;0.000;2023-05-16T10:16:17;101077.41;;;13.69;48.55
80648;BME280;70012;0.000;0.000;2023-05-16T10:18:44;101067.75;;;13.44;47.62
80648;BME280;70012;0.000;0.000;2023-05-16T10:21:14;101082.41;;;13.72;48.79
80648;BME280;70012;0.000;0.000;2023-05-16T10:23:43;101083.16;;;13.90;46.01
80648;BME280;70012;0.000;0.000;2023-05-16T10:26:16;101091.75;;;13.71;45.55
80648;BME280;70012;0.000;0.000;2023-05-16T10:28:43;101097.03;;;13.56;46.31
80648;BME280;70012;0.000;0.000;2023-05-16T10:31:11;101080.78;;;13.76;45.21
80648;BME280;70012;0.000;0.000;2023-05-16T10:33:38;101080.03;;;14.08;45.75
80648;BME280;70012;0.000;0.000;2023-05-16T10:36:10;101073.47;;;14.37;46.85
80648;BME280;70012;0.000;0.000;2023-05-16T10:38:38;101080.66;;;14.70;47.82
80648;BME280;70012;0.000;0.000;2023-05-16T10:41:05;101086.34;;;14.96;46.15
80648;BME280;70012;0.000;0.000;2023-05-16T10:43:32;101079.22;;;14.95;42.27
80648;BME280;70012;0.000;0.000;2023-05-16T10:46:07;101086.44;;;15.07;43.60
80648;BME280;70012;0.000;0.000;2023-05-16T10:48:38;101075.75;;;15.20;43.46
80648;BME280;70012;0.000;0.000;2023-05-16T10:51:34;101080.63;;;15.51;41.57
80648;BME280;70012;0.000;0.000;2023-05-16T10:54:09;101074.59;;;15.64;42.70
80648;BME280;70012;0.000;0.000;2023-05-16T10:56:38;101069.09;;;15.69;40.20
80648;BME280;70012;0.000;0.000;2023-05-16T10:59:21;101079.72;;;15.88;38.96
80648;BME280;70012;0.000;0.000;2023-05-16T11:01:52;101078.91;;;16.13;39.81
80648;BME280;70012;0.000;0.000;2023-05-16T11:04:19;101070.94;;;16.38;39.97
80648;BME280;70012;0.000;0.000;2023-05-16T11:06:50;101083.94;;;16.42;39.61
80648;BME280;70012;0.000;0.000;2023-05-16T11:09:23;101080.06;;;16.54;39.35
80648;BME280;70012;0.000;0.000;2023-05-16T11:24:53;101080.34;;;16.78;39.31
80648;BME280;70012;0.000;0.000;2023-05-16T11:30:20;101080.38;;;16.42;40.26
80648;BME280;70012;0.000;0.000;2023-05-16T11:32:47;101076.78;;;16.52;41.07
80648;BME280;70012;0.000;0.000;2023-05-16T11:35:15;101079.81;;;16.55;40.37
80648;BME280;70012;0.000;0.000;2023-05-16T11:37:43;101094.16;;;16.21;40.45
80648;BME280;70012;0.000;0.000;2023-05-16T11:40:13;101084.97;;;16.00;40.73
80648;BME280;70012;0.000;0.000;2023-05-16T11:42:42;101080.75;;;15.82;41.60
80648;BME280;70012;0.000;0.000;2023-05-16T11:45:18;101080.53;;;15.99;42.20
80648;BME280;70012;0.000;0.000;2023-05-16T11:47:46;101084.72;;;16.12;42.60
80648;BME280;70012;0.000;0.000;2023-05-16T11:50:18;101088.06;;;16.24;41.20
80648;BME280;70012;0.000;0.000;2023-05-16T11:52:51;101089.16;;;16.18;41.33
80648;BME280;70012;0.000;0.000;2023-05-16T11:55:21;101087.50;;;16.17;39.86
80648;BME280;70012;0.000;0.000;2023-05-16T11:58:06;101082.44;;;15.83;41.08
80648;BME280;70012;0.000;0.000;2023-05-16T12:00:33;101099.44;;;15.59;42.74
80648;BME280;70012;0.000;0.000;2023-05-16T12:03:02;101086.69;;;15.53;42.22
80648;BME280;70012;0.000;0.000;2023-05-16T12:05:40;101099.31;;;15.39;41.77
80648;BME280;70012;0.000;0.000;2023-05-16T12:08:26;101078.25;;;15.22;42.92
80648;BME280;70012;0.000;0.000;2023-05-16T12:10:53;101095.88;;;15.16;43.24
80648;BME280;70012;0.000;0.000;2023-05-16T12:13:21;101088.19;;;15.23;43.36
80648;BME280;70012;0.000;0.000;2023-05-16T12:15:50;101075.66;;;15.48;41.98
80648;BME280;70012;0.000;0.000;2023-05-16T12:18:17;101094.44;;;15.56;42.75
80648;BME280;70012;0.000;0.000;2023-05-16T12:20:44;101088.72;;;15.73;40.90
80648;BME280;70012;0.000;0.000;2023-05-16T12:23:11;101080.19;;;15.75;40.50
80648;BME280;70012;0.000;0.000;2023-05-16T12:25:39;101092.53;;;15.62;42.08
80648;BME280;70012;0.000;0.000;2023-05-16T12:28:12;101089.25;;;15.70;42.31
80648;BME280;70012;0.000;0.000;2023-05-16T12:30:43;101081.34;;;15.89;41.65
80648;BME280;70012;0.000;0.000;2023-05-16T12:33:13;101088.06;;;16.14;40.97
80648;BME280;70012;0.000;0.000;2023-05-16T12:35:43;101079.25;;;16.32;42.06
80648;BME280;70012;0.000;0.000;2023-05-16T12:38:12;101079.25;;;16.48;41.04
80648;BME280;70012;0.000;0.000;2023-05-16T12:40:41;101085.88;;;16.57;40.10
80648;BME280;70012;0.000;0.000;2023-05-16T12:43:15;101079.25;;;16.63;40.04
80648;BME280;70012;0.000;0.000;2023-05-16T12:45:51;101087.53;;;16.89;40.79
80648;BME280;70012;0.000;0.000;2023-05-16T12:48:20;101097.81;;;16.99;40.35
80648;BME280;70012;0.000;0.000;2023-05-16T12:50:47;101087.00;;;16.98;39.12
80648;BME280;70012;0.000;0.000;2023-05-16T12:53:15;101098.06;;;17.13;40.81
80648;BME280;70012;0.000;0.000;2023-05-16T12:55:45;101085.31;;;17.22;39.29
80648;BME280;70012;0.000;0.000;2023-05-16T12:58:12;101082.53;;;17.27;41.14
80648;BME280;70012;0.000;0.000;2023-05-16T13:00:39;101093.06;;;17.10;40.68
80648;BME280;70012;0.000;0.000;2023-05-16T13:03:06;101084.75;;;16.89;39.31
80648;BME280;70012;0.000;0.000;2023-05-16T13:05:33;101091.69;;;16.76;41.83
80648;BME280;70012;0.000;0.000;2023-05-16T13:08:02;101083.69;;;16.49;41.33
80648;BME280;70012;0.000;0.000;2023-05-16T13:10:29;101090.81;;;16.29;41.03
80648;BME280;70012;0.000;0.000;2023-05-16T13:12:55;101099.09;;;16.14;41.09
80648;BME280;70012;0.000;0.000;2023-05-16T13:15:25;101103.19;;;15.96;41.75
80648;BME280;70012;0.000;0.000;2023-05-16T13:17:53;101108.59;;;15.75;43.24
80648;BME280;70012;0.000;0.000;2023-05-16T13:20:20;101102.78;;;15.72;44.62
80648;BME280;70012;0.000;0.000;2023-05-16T13:22:47;101110.09;;;15.98;45.13
80648;BME280;70012;0.000;0.000;2023-05-16T13:25:13;101118.09;;;15.95;42.15
80648;BME280;70012;0.000;0.000;2023-05-16T13:27:40;101111.75;;;15.99;39.28
80648;BME280;70012;0.000;0.000;2023-05-16T13:30:07;101106.81;;;16.12;39.77
80648;BME280;70012;0.000;0.000;2023-05-16T13:32:34;101114.59;;;16.25;39.39
80648;BME280;70012;0.000;0.000;2023-05-16T13:35:01;101105.81;;;16.49;39.55
80648;BME280;70012;0.000;0.000;2023-05-16T13:37:30;101096.69;;;16.69;41.65